createdAt,value
2018-05-15T00:00:45.621Z,15.04
2018-05-15T00:01:51.997Z,15.01
2018-05-15T00:02:58.390Z,14.90
2018-05-15T00:04:04.775Z,14.81
2018-05-15T00:05:10.657Z,14.77
2018-05-15T00:06:17.026Z,14.74
2018-05-15T00:07:23.407Z,14.69
2018-05-15T00:08:30.411Z,14.68
2018-05-15T00:09:36.660Z,14.68
2018-05-15T00:10:43.041Z,14.64
2018-05-15T00:11:49.434Z,14.65
2018-05-15T00:12:55.332Z,14.66
2018-05-15T00:14:02.188Z,14.62
2018-05-15T00:15:08.558Z,14.64
2018-05-15T00:16:14.932Z,14.70
2018-05-15T00:17:21.311Z,14.72
2018-05-15T00:18:27.707Z,14.70
2018-05-15T00:19:34.066Z,14.64
2018-05-15T00:20:40.461Z,14.64
2018-05-15T00:21:46.821Z,14.66
2018-05-15T00:22:53.225Z,14.66
2018-05-15T00:23:59.559Z,14.66
2018-05-15T00:25:05.950Z,14.69
2018-05-15T00:26:12.387Z,14.80
2018-05-15T00:27:18.705Z,14.89
2018-05-15T00:28:25.083Z,14.90
2018-05-15T00:29:31.440Z,14.87
2018-05-15T00:30:37.321Z,14.89
2018-05-15T00:31:43.687Z,14.90
2018-05-15T00:32:50.592Z,14.90
2018-05-15T00:33:56.934Z,14.92
2018-05-15T00:35:03.318Z,14.94
2018-05-15T00:36:09.695Z,14.96
2018-05-15T00:37:16.069Z,14.98
2018-05-15T00:38:21.960Z,14.96
2018-05-15T00:39:28.814Z,14.93
2018-05-15T00:40:35.183Z,14.89
2018-05-15T00:41:41.557Z,14.85
2018-05-15T00:42:47.951Z,14.83
2018-05-15T00:43:55.307Z,14.85
2018-05-15T00:45:00.697Z,14.94
2018-05-15T00:46:07.064Z,14.93
2018-05-15T00:47:13.450Z,14.91
2018-05-15T00:48:19.853Z,14.86
2018-05-15T00:49:25.713Z,14.82
2018-05-15T00:50:32.076Z,14.77
2018-05-15T00:51:38.949Z,14.71
2018-05-15T00:52:45.347Z,14.65
2018-05-15T00:53:51.722Z,14.62
2018-05-15T00:54:58.086Z,14.59
2018-05-15T00:56:04.457Z,14.56
2018-05-15T00:57:10.828Z,14.52
2018-05-15T00:58:17.228Z,14.50
2018-05-15T00:59:23.576Z,14.50
2018-05-15T01:00:29.986Z,14.52
2018-05-15T01:01:36.383Z,14.52
2018-05-15T01:02:42.740Z,14.52
2018-05-15T01:03:48.577Z,14.55
2018-05-15T01:04:55.448Z,14.55
2018-05-15T01:06:01.811Z,14.54
2018-05-15T01:07:08.201Z,14.52
2018-05-15T01:08:14.618Z,14.45
2018-05-15T01:09:20.945Z,14.46
2018-05-15T01:10:27.295Z,14.42
2018-05-15T01:11:33.176Z,14.37
2018-05-15T01:12:40.058Z,14.33
2018-05-15T01:13:46.424Z,14.39
2018-05-15T01:14:53.726Z,14.48
2018-05-15T01:16:00.142Z,14.52
2018-05-15T01:17:05.528Z,14.53
2018-05-15T01:18:11.919Z,14.53
2018-05-15T01:19:18.252Z,14.51
2018-05-15T01:20:24.612Z,14.48
2018-05-15T01:21:30.990Z,14.39
2018-05-15T01:22:36.870Z,14.35
2018-05-15T01:23:43.756Z,14.30
2018-05-15T01:24:50.095Z,14.26
2018-05-15T01:25:56.458Z,14.16
2018-05-15T01:27:02.821Z,14.15
2018-05-15T01:28:09.212Z,14.16
2018-05-15T01:29:15.559Z,14.12
2018-05-15T01:30:21.906Z,14.10
2018-05-15T01:31:28.270Z,14.02
2018-05-15T01:32:34.654Z,13.95
2018-05-15T01:33:41.028Z,13.86
2018-05-15T01:34:47.375Z,13.91
2018-05-15T01:35:53.731Z,13.86
2018-05-15T01:37:00.088Z,13.79
2018-05-15T01:38:06.483Z,13.78
2018-05-15T01:39:12.821Z,13.77
2018-05-15T01:40:19.177Z,13.74
2018-05-15T01:41:25.540Z,13.76
2018-05-15T01:42:31.897Z,13.77
2018-05-15T01:43:38.283Z,13.82
2018-05-15T01:44:45.603Z,13.80
2018-05-15T01:45:50.467Z,13.82
2018-05-15T01:46:57.320Z,13.83
2018-05-15T01:48:03.716Z,13.86
2018-05-15T01:49:10.047Z,13.86
2018-05-15T01:50:16.427Z,13.89
2018-05-15T01:51:22.764Z,13.90
2018-05-15T01:52:29.114Z,13.88
2018-05-15T01:53:35.513Z,13.89
2018-05-15T01:54:41.825Z,13.91
2018-05-15T01:55:48.184Z,13.94
2018-05-15T01:56:54.545Z,13.94
2018-05-15T01:58:00.909Z,13.96
2018-05-15T01:59:07.245Z,14.00
2018-05-15T02:00:13.600Z,14.05
2018-05-15T02:01:19.970Z,14.06
2018-05-15T02:02:26.622Z,14.07
2018-05-15T02:03:32.698Z,14.09
2018-05-15T02:04:39.027Z,14.10
2018-05-15T02:05:45.394Z,14.15
2018-05-15T02:06:51.831Z,14.13
2018-05-15T02:07:58.123Z,14.15
2018-05-15T02:09:04.468Z,14.14
2018-05-15T02:10:10.807Z,14.08
2018-05-15T02:11:17.192Z,14.05
2018-05-15T02:12:23.534Z,14.04
2018-05-15T02:13:29.425Z,14.03
2018-05-15T02:14:36.248Z,13.98
2018-05-15T02:15:42.600Z,13.99
2018-05-15T02:16:48.958Z,13.98
2018-05-15T02:17:55.352Z,13.93
2018-05-15T02:19:01.675Z,13.90
2018-05-15T02:20:08.035Z,13.90
2018-05-15T02:21:14.396Z,13.90
2018-05-15T02:22:20.743Z,13.87
2018-05-15T02:23:27.128Z,13.90
2018-05-15T02:24:33.460Z,13.94
2018-05-15T02:25:39.813Z,13.88
2018-05-15T02:26:45.682Z,13.88
2018-05-15T02:27:52.031Z,13.85
2018-05-15T02:28:58.898Z,13.89
2018-05-15T02:30:05.238Z,13.91
2018-05-15T02:31:11.591Z,13.92
2018-05-15T02:32:17.952Z,13.86
2018-05-15T02:33:23.822Z,13.84
2018-05-15T02:34:30.664Z,13.85
2018-05-15T02:35:37.025Z,13.85
2018-05-15T02:36:43.363Z,13.82
2018-05-15T02:37:49.718Z,13.83
2018-05-15T02:38:56.085Z,13.80
2018-05-15T02:40:02.408Z,13.79
2018-05-15T02:41:09.757Z,13.75
2018-05-15T02:42:16.112Z,13.72
2018-05-15T02:43:21.505Z,13.67
2018-05-15T02:44:27.332Z,13.63
2018-05-15T02:45:33.684Z,13.60
2018-05-15T02:46:40.536Z,13.60
2018-05-15T02:47:46.872Z,13.56
2018-05-15T02:48:53.245Z,13.49
2018-05-15T02:49:59.571Z,13.54
2018-05-15T02:51:05.935Z,13.54
2018-05-15T02:52:12.380Z,13.55
2018-05-15T02:53:18.649Z,13.54
2018-05-15T02:54:24.978Z,13.58
2018-05-15T02:55:30.840Z,13.55
2018-05-15T02:56:37.677Z,13.57
2018-05-15T02:57:43.543Z,13.53
2018-05-15T02:58:50.413Z,13.49
2018-05-15T02:59:56.728Z,13.50
2018-05-15T03:01:03.074Z,13.46
2018-05-15T03:02:09.424Z,13.40
2018-05-15T03:03:15.795Z,13.40
2018-05-15T03:04:22.129Z,13.41
2018-05-15T03:05:28.464Z,13.48
2018-05-15T03:06:34.851Z,13.47
2018-05-15T03:07:41.160Z,13.42
2018-05-15T03:08:47.518Z,13.36
2018-05-15T03:09:53.854Z,13.32
2018-05-15T03:11:00.216Z,13.31
2018-05-15T03:12:06.534Z,13.26
2018-05-15T03:13:12.904Z,13.22
2018-05-15T03:14:19.221Z,13.16
2018-05-15T03:15:25.560Z,13.15
2018-05-15T03:16:31.890Z,13.14
2018-05-15T03:17:38.233Z,13.14
2018-05-15T03:18:44.601Z,13.12
2018-05-15T03:19:51.913Z,13.11
2018-05-15T03:20:57.270Z,13.09
2018-05-15T03:22:03.586Z,13.13
2018-05-15T03:23:09.971Z,13.12
2018-05-15T03:24:16.267Z,13.10
2018-05-15T03:25:22.624Z,13.09
2018-05-15T03:26:28.952Z,13.05
2018-05-15T03:27:35.339Z,13.06
2018-05-15T03:28:41.163Z,13.02
2018-05-15T03:29:47.463Z,13.07
2018-05-15T03:30:54.384Z,13.08
2018-05-15T03:32:00.140Z,13.07
2018-05-15T03:33:06.978Z,13.12
2018-05-15T03:34:12.842Z,13.10
2018-05-15T03:35:19.646Z,13.11
2018-05-15T03:36:25.984Z,13.12
2018-05-15T03:37:32.382Z,13.18
2018-05-15T03:38:38.682Z,13.22
2018-05-15T03:39:44.975Z,13.20
2018-05-15T03:40:51.324Z,13.20
2018-05-15T03:41:57.658Z,13.18
2018-05-15T03:43:03.982Z,13.24
2018-05-15T03:44:10.407Z,13.26
2018-05-15T03:45:16.660Z,13.24
2018-05-15T03:46:22.987Z,13.24
2018-05-15T03:47:29.333Z,13.23
2018-05-15T03:48:35.686Z,13.21
2018-05-15T03:49:41.514Z,13.18
2018-05-15T03:50:48.383Z,13.16
2018-05-15T03:51:54.174Z,13.10
2018-05-15T03:53:01.012Z,13.05
2018-05-15T03:54:07.375Z,13.03
2018-05-15T03:55:13.697Z,13.00
2018-05-15T03:56:20.016Z,13.03
2018-05-15T03:57:26.383Z,13.01
2018-05-15T03:58:32.715Z,12.97
2018-05-15T03:59:39.035Z,12.94
2018-05-15T04:00:44.860Z,12.95
2018-05-15T04:01:51.697Z,12.99
2018-05-15T04:02:58.020Z,13.06
2018-05-15T04:04:04.405Z,13.12
2018-05-15T04:05:10.701Z,13.09
2018-05-15T04:06:17.038Z,13.02
2018-05-15T04:07:23.366Z,12.98
2018-05-15T04:08:29.729Z,12.93
2018-05-15T04:09:36.046Z,12.92
2018-05-15T04:10:42.380Z,12.94
2018-05-15T04:11:48.693Z,12.97
2018-05-15T04:12:55.032Z,13.00
2018-05-15T04:14:01.382Z,13.06
2018-05-15T04:15:07.689Z,13.13
2018-05-15T04:16:13.533Z,13.20
2018-05-15T04:17:19.870Z,13.19
2018-05-15T04:18:26.705Z,13.22
2018-05-15T04:19:33.064Z,13.23
2018-05-15T04:20:40.400Z,13.23
2018-05-15T04:21:45.714Z,13.28
2018-05-15T04:22:52.037Z,13.33
2018-05-15T04:23:58.401Z,13.31
2018-05-15T04:25:04.237Z,13.41
2018-05-15T04:26:10.594Z,13.48
2018-05-15T04:27:16.910Z,13.50
2018-05-15T04:28:23.763Z,13.51
2018-05-15T04:29:30.134Z,13.49
2018-05-15T04:30:36.439Z,13.47
2018-05-15T04:31:42.786Z,13.44
2018-05-15T04:32:49.139Z,13.38
2018-05-15T04:33:55.499Z,13.34
2018-05-15T04:35:02.852Z,13.31
2018-05-15T04:36:08.177Z,13.26
2018-05-15T04:37:14.532Z,13.25
2018-05-15T04:38:20.890Z,13.25
2018-05-15T04:39:27.243Z,13.25
2018-05-15T04:40:33.581Z,13.23
2018-05-15T04:41:39.924Z,13.19
2018-05-15T04:42:46.254Z,13.21
2018-05-15T04:43:52.318Z,13.22
2018-05-15T04:44:58.951Z,13.22
2018-05-15T04:46:05.315Z,13.23
2018-05-15T04:47:11.636Z,13.21
2018-05-15T04:48:17.993Z,13.19
2018-05-15T04:49:24.491Z,13.17
2018-05-15T04:50:30.706Z,13.17
2018-05-15T04:51:36.543Z,13.18
2018-05-15T04:52:43.387Z,13.17
2018-05-15T04:53:49.760Z,13.19
2018-05-15T04:54:56.067Z,13.26
2018-05-15T04:56:02.415Z,13.33
2018-05-15T04:57:08.276Z,13.36
2018-05-15T04:58:15.112Z,13.32
2018-05-15T04:59:21.494Z,13.27
2018-05-15T05:00:27.807Z,13.20
2018-05-15T05:01:33.669Z,13.10
2018-05-15T05:02:40.511Z,13.05
2018-05-15T05:03:46.878Z,13.02
2018-05-15T05:04:54.194Z,13.06
2018-05-15T05:05:59.547Z,13.11
2018-05-15T05:07:05.904Z,13.21
2018-05-15T05:08:12.258Z,13.33
2018-05-15T05:09:18.612Z,13.49
2018-05-15T05:10:24.934Z,13.67
2018-05-15T05:11:30.788Z,13.88
2018-05-15T05:12:37.640Z,14.02
2018-05-15T05:13:43.503Z,14.19
2018-05-15T05:14:50.400Z,14.32
2018-05-15T05:15:56.727Z,14.39
2018-05-15T05:17:03.105Z,14.39
2018-05-15T05:18:09.470Z,14.34
2018-05-15T05:19:15.864Z,14.24
2018-05-15T05:20:22.210Z,14.10
2018-05-15T05:21:28.573Z,14.00
2018-05-15T05:22:34.950Z,13.89
2018-05-15T05:23:41.385Z,13.80
2018-05-15T05:24:47.723Z,13.76
2018-05-15T05:25:54.065Z,13.76
2018-05-15T05:27:00.439Z,13.76
2018-05-15T05:28:06.387Z,13.77
2018-05-15T05:29:13.170Z,13.79
2018-05-15T05:30:19.553Z,13.84
2018-05-15T05:31:25.882Z,13.87
2018-05-15T05:32:31.766Z,13.96
2018-05-15T05:33:38.622Z,14.09
2018-05-15T05:34:45.034Z,14.29
2018-05-15T05:35:51.370Z,14.44
2018-05-15T05:36:57.755Z,14.54
2018-05-15T05:38:04.135Z,14.53
2018-05-15T05:39:10.553Z,14.58
2018-05-15T05:40:16.920Z,14.72
2018-05-15T05:41:23.291Z,14.83
2018-05-15T05:42:29.700Z,14.91
2018-05-15T05:43:36.094Z,15.02
2018-05-15T05:44:42.511Z,15.21
2018-05-15T05:45:48.935Z,15.23
2018-05-15T05:46:55.313Z,15.30
2018-05-15T05:48:01.718Z,15.43
2018-05-15T05:49:08.167Z,15.57
2018-05-15T05:50:14.554Z,15.77
2018-05-15T05:51:20.989Z,15.76
2018-05-15T05:52:26.908Z,15.73
2018-05-15T05:53:33.836Z,15.69
2018-05-15T05:54:40.284Z,15.65
2018-05-15T05:55:46.700Z,15.64
2018-05-15T05:56:53.127Z,15.60
2018-05-15T05:57:59.592Z,15.64
2018-05-15T05:59:06.012Z,15.68
2018-05-15T06:00:13.414Z,15.70
2018-05-15T06:01:18.368Z,15.68
2018-05-15T06:02:25.301Z,15.69
2018-05-15T06:03:31.730Z,15.61
2018-05-15T06:04:38.181Z,15.57
2018-05-15T06:05:44.573Z,15.54
2018-05-15T06:06:51.008Z,15.55
2018-05-15T06:07:57.436Z,15.46
2018-05-15T06:09:03.384Z,15.36
2018-05-15T06:10:10.379Z,15.31
2018-05-15T06:11:16.720Z,15.23
2018-05-15T06:12:23.123Z,15.10
2018-05-15T06:13:29.551Z,15.02
2018-05-15T06:14:35.991Z,14.91
2018-05-15T06:15:41.879Z,14.90
2018-05-15T06:16:48.790Z,14.91
2018-05-15T06:17:55.198Z,14.94
2018-05-15T06:19:01.640Z,15.03
2018-05-15T06:20:08.019Z,15.14
2018-05-15T06:21:14.446Z,15.24
2018-05-15T06:22:20.846Z,15.37
2018-05-15T06:23:27.267Z,15.50
2018-05-15T06:24:33.717Z,15.66
2018-05-15T06:25:40.102Z,15.73
2018-05-15T06:26:46.035Z,15.89
2018-05-15T06:27:52.450Z,15.97
2018-05-15T06:28:59.387Z,16.16
2018-05-15T06:30:05.833Z,16.34
2018-05-15T06:31:12.236Z,16.43
2018-05-15T06:32:18.728Z,16.56
2018-05-15T06:33:25.101Z,16.63
2018-05-15T06:34:31.565Z,16.67
2018-05-15T06:35:37.489Z,16.77
2018-05-15T06:36:44.443Z,16.79
2018-05-15T06:37:50.889Z,16.72
2018-05-15T06:38:57.343Z,16.72
2018-05-15T06:40:03.816Z,16.73
2018-05-15T06:41:10.258Z,16.79
2018-05-15T06:42:16.210Z,16.76
2018-05-15T06:43:23.173Z,16.63
2018-05-15T06:44:29.157Z,16.58
2018-05-15T06:45:36.096Z,16.56
2018-05-15T06:46:42.555Z,16.62
2018-05-15T06:47:49.516Z,16.59
2018-05-15T06:48:55.479Z,16.71
2018-05-15T06:50:01.978Z,16.75
2018-05-15T06:51:08.417Z,16.76
2018-05-15T06:52:14.875Z,16.88
2018-05-15T06:53:20.839Z,16.90
2018-05-15T06:54:27.827Z,16.99
2018-05-15T06:55:34.261Z,16.97
2018-05-15T06:56:40.729Z,17.09
2018-05-15T06:57:47.201Z,17.10
2018-05-15T06:58:53.692Z,17.19
2018-05-15T07:00:01.176Z,17.20
2018-05-15T07:01:06.645Z,17.25
2018-05-15T07:02:12.619Z,17.30
2018-05-15T07:03:19.591Z,17.42
2018-05-15T07:04:26.121Z,17.56
2018-05-15T07:05:32.580Z,17.56
2018-05-15T07:06:39.073Z,17.58
2018-05-15T07:07:45.639Z,17.58
2018-05-15T07:08:52.088Z,17.38
2018-05-15T07:09:58.106Z,17.31
2018-05-15T07:11:05.086Z,17.26
2018-05-15T07:12:11.577Z,17.17
2018-05-15T07:13:17.590Z,17.02
2018-05-15T07:14:24.595Z,17.01
2018-05-15T07:15:31.078Z,17.00
2018-05-15T07:16:37.573Z,17.05
2018-05-15T07:17:44.071Z,17.10
2018-05-15T07:18:50.564Z,17.17
2018-05-15T07:19:57.091Z,17.23
2018-05-15T07:21:03.065Z,17.14
2018-05-15T07:22:10.049Z,17.19
2018-05-15T07:23:16.051Z,17.23
2018-05-15T07:24:23.561Z,17.32
2018-05-15T07:25:29.540Z,17.39
2018-05-15T07:26:35.529Z,17.40
2018-05-15T07:27:42.030Z,17.40
2018-05-15T07:28:49.027Z,17.51
2018-05-15T07:29:55.037Z,17.48
2018-05-15T07:31:01.531Z,17.45
2018-05-15T07:32:08.508Z,17.47
2018-05-15T07:33:14.637Z,17.49
2018-05-15T07:34:21.034Z,17.52
2018-05-15T07:35:28.008Z,17.51
2018-05-15T07:36:34.507Z,17.57
2018-05-15T07:37:41.002Z,17.57
2018-05-15T07:38:46.992Z,17.67
2018-05-15T07:39:54.022Z,17.67
2018-05-15T07:40:59.994Z,17.67
2018-05-15T07:42:06.975Z,17.62
2018-05-15T07:43:13.482Z,17.65
2018-05-15T07:44:19.974Z,17.66
2018-05-15T07:45:26.011Z,17.66
2018-05-15T07:46:32.474Z,17.59
2018-05-15T07:47:39.468Z,17.55
2018-05-15T07:48:46.950Z,17.52
2018-05-15T07:49:51.984Z,17.38
2018-05-15T07:50:58.956Z,17.24
2018-05-15T07:52:05.471Z,17.22
2018-05-15T07:53:11.949Z,17.13
2018-05-15T07:54:18.454Z,17.10
2018-05-15T07:55:24.976Z,17.10
2018-05-15T07:56:31.443Z,17.15
2018-05-15T07:57:37.942Z,17.28
2018-05-15T07:58:44.431Z,17.41
2018-05-15T07:59:50.946Z,17.58
2018-05-15T08:00:57.439Z,17.75
2018-05-15T08:02:03.958Z,17.84
2018-05-15T08:03:10.439Z,17.92
2018-05-15T08:04:17.029Z,17.89
2018-05-15T08:05:23.480Z,17.92
2018-05-15T08:06:29.951Z,18.03
2018-05-15T08:07:36.479Z,18.12
2018-05-15T08:08:42.495Z,18.14
2018-05-15T08:09:49.524Z,18.20
2018-05-15T08:10:56.022Z,18.28
2018-05-15T08:12:02.541Z,18.36
2018-05-15T08:13:09.063Z,18.40
2018-05-15T08:14:15.575Z,18.44
2018-05-15T08:15:21.634Z,18.39
2018-05-15T08:16:28.620Z,18.34
2018-05-15T08:17:34.653Z,18.44
2018-05-15T08:18:41.764Z,18.48
2018-05-15T08:19:47.715Z,18.63
2018-05-15T08:20:54.790Z,18.79
2018-05-15T08:22:01.250Z,18.84
2018-05-15T08:23:07.802Z,18.90
2018-05-15T08:24:14.380Z,18.95
2018-05-15T08:25:20.898Z,18.99
2018-05-15T08:26:26.937Z,18.89
2018-05-15T08:27:33.981Z,18.71
2018-05-15T08:28:40.041Z,18.53
2018-05-15T08:29:47.113Z,18.56
2018-05-15T08:30:53.734Z,18.59
2018-05-15T08:32:01.180Z,18.64
2018-05-15T08:33:06.770Z,18.66
2018-05-15T08:34:13.309Z,18.59
2018-05-15T08:35:19.893Z,18.61
2018-05-15T08:36:25.920Z,18.67
2018-05-15T08:37:33.088Z,18.66
2018-05-15T08:38:39.523Z,18.68
2018-05-15T08:39:45.607Z,18.66
2018-05-15T08:40:52.151Z,18.67
2018-05-15T08:41:58.691Z,18.70
2018-05-15T08:43:05.737Z,18.70
2018-05-15T08:44:12.382Z,18.73
2018-05-15T08:45:18.427Z,18.79
2018-05-15T08:46:24.903Z,18.80
2018-05-15T08:47:31.938Z,18.76
2018-05-15T08:48:38.497Z,18.82
2018-05-15T08:49:45.065Z,18.93
2018-05-15T08:50:51.108Z,19.02
2018-05-15T08:51:58.142Z,19.14
2018-05-15T08:53:04.701Z,19.14
2018-05-15T08:54:11.246Z,19.12
2018-05-15T08:55:17.822Z,19.12
2018-05-15T08:56:24.378Z,19.28
2018-05-15T08:57:30.916Z,19.46
2018-05-15T08:58:36.971Z,19.67
2018-05-15T08:59:44.051Z,19.82
2018-05-15T09:00:50.597Z,19.88
2018-05-15T09:01:57.169Z,19.99
2018-05-15T09:03:03.723Z,20.09
2018-05-15T09:04:09.796Z,20.22
2018-05-15T09:05:16.867Z,20.29
2018-05-15T09:06:23.405Z,20.40
2018-05-15T09:07:29.481Z,20.55
2018-05-15T09:08:36.066Z,20.60
2018-05-15T09:09:42.662Z,20.67
2018-05-15T09:10:49.210Z,20.72
2018-05-15T09:11:55.804Z,20.82
2018-05-15T09:13:02.878Z,20.85
2018-05-15T09:14:08.989Z,20.73
2018-05-15T09:15:16.101Z,20.71
2018-05-15T09:16:22.686Z,20.82
2018-05-15T09:17:29.289Z,20.97
2018-05-15T09:18:35.887Z,21.12
2018-05-15T09:19:42.526Z,21.28
2018-05-15T09:20:48.656Z,21.41
2018-05-15T09:21:55.238Z,21.43
2018-05-15T09:23:02.360Z,21.30
2018-05-15T09:24:08.509Z,21.42
2018-05-15T09:25:16.639Z,21.52
2018-05-15T09:26:22.266Z,21.53
2018-05-15T09:27:28.394Z,21.55
2018-05-15T09:28:35.532Z,21.51
2018-05-15T09:29:41.663Z,21.55
2018-05-15T09:30:48.324Z,21.59
2018-05-15T09:31:55.453Z,21.62
2018-05-15T09:33:02.091Z,21.63
2018-05-15T09:34:08.746Z,21.70
2018-05-15T09:35:14.914Z,21.74
2018-05-15T09:36:21.560Z,21.82
2018-05-15T09:37:28.716Z,21.99
2018-05-15T09:38:34.890Z,22.11
2018-05-15T09:39:42.057Z,22.33
2018-05-15T09:40:48.249Z,22.46
2018-05-15T09:41:55.402Z,22.47
2018-05-15T09:43:02.066Z,22.49
2018-05-15T09:44:08.243Z,22.39
2018-05-15T09:45:14.937Z,22.28
2018-05-15T09:46:21.589Z,22.14
2018-05-15T09:47:28.755Z,21.92
2018-05-15T09:48:35.437Z,21.83
2018-05-15T09:49:42.618Z,21.85
2018-05-15T09:50:48.318Z,21.89
2018-05-15T09:51:55.467Z,21.90
2018-05-15T09:53:02.130Z,21.85
2018-05-15T09:54:08.802Z,21.84
2018-05-15T09:55:14.991Z,21.68
2018-05-15T09:56:22.130Z,21.58
2018-05-15T09:57:28.401Z,21.49
2018-05-15T09:58:34.971Z,21.58
2018-05-15T09:59:42.141Z,21.69
2018-05-15T10:00:48.830Z,21.82
2018-05-15T10:01:55.467Z,21.69
2018-05-15T10:03:02.130Z,21.77
2018-05-15T10:04:08.786Z,21.89
2018-05-15T10:05:15.469Z,21.96
2018-05-15T10:06:22.116Z,21.96
2018-05-15T10:07:28.280Z,22.11
2018-05-15T10:08:35.445Z,22.36
2018-05-15T10:09:41.600Z,22.40
2018-05-15T10:10:48.780Z,22.22
2018-05-15T10:11:55.425Z,22.26
2018-05-15T10:13:02.100Z,22.14
2018-05-15T10:14:08.356Z,22.02
2018-05-15T10:15:15.426Z,21.92
2018-05-15T10:16:22.123Z,21.83
2018-05-15T10:17:28.387Z,21.70
2018-05-15T10:18:35.446Z,21.63
2018-05-15T10:19:41.622Z,21.63
2018-05-15T10:20:48.825Z,21.71
2018-05-15T10:21:54.975Z,21.88
2018-05-15T10:23:02.148Z,22.03
2018-05-15T10:24:08.830Z,22.03
2018-05-15T10:25:15.540Z,22.26
2018-05-15T10:26:23.263Z,22.65
2018-05-15T10:27:28.411Z,23.05
2018-05-15T10:28:35.586Z,23.08
2018-05-15T10:29:42.385Z,23.16
2018-05-15T10:30:49.015Z,23.20
2018-05-15T10:31:55.206Z,23.29
2018-05-15T10:33:02.417Z,23.40
2018-05-15T10:34:08.639Z,23.71
2018-05-15T10:35:15.874Z,23.94
2018-05-15T10:36:22.091Z,24.20
2018-05-15T10:37:29.309Z,24.34
2018-05-15T10:38:36.061Z,24.41
2018-05-15T10:39:42.400Z,24.59
2018-05-15T10:40:49.099Z,24.70
2018-05-15T10:41:55.841Z,24.82
2018-05-15T10:43:02.626Z,24.83
2018-05-15T10:44:10.212Z,24.63
2018-05-15T10:45:16.222Z,24.31
2018-05-15T10:46:23.491Z,24.33
2018-05-15T10:47:30.263Z,24.29
2018-05-15T10:48:37.053Z,24.20
2018-05-15T10:49:43.360Z,23.74
2018-05-15T10:50:50.227Z,23.56
2018-05-15T10:51:57.434Z,23.34
2018-05-15T10:53:04.225Z,23.17
2018-05-15T10:54:10.515Z,22.81
2018-05-15T10:55:17.812Z,22.62
2018-05-15T10:56:24.043Z,22.41
2018-05-15T10:57:30.796Z,22.26
2018-05-15T10:58:37.547Z,22.22
2018-05-15T10:59:44.384Z,22.13
2018-05-15T11:00:51.570Z,22.12
2018-05-15T11:01:57.781Z,22.12
2018-05-15T11:03:05.021Z,22.16
2018-05-15T11:04:11.756Z,22.37
2018-05-15T11:05:19.521Z,22.63
2018-05-15T11:06:26.247Z,22.97
2018-05-15T11:07:32.005Z,23.23
2018-05-15T11:08:38.777Z,23.62
2018-05-15T11:09:45.088Z,24.15
2018-05-15T11:10:52.507Z,24.62
2018-05-15T11:11:59.477Z,24.98
2018-05-15T11:13:06.515Z,25.16
2018-05-15T11:14:13.107Z,25.28
2018-05-15T11:15:20.424Z,25.22
2018-05-15T11:16:27.359Z,25.40
2018-05-15T11:17:35.020Z,25.39
2018-05-15T11:18:42.294Z,25.58
2018-05-15T11:19:48.896Z,25.93
2018-05-15T11:20:56.096Z,25.84
2018-05-15T11:22:03.785Z,25.66
2018-05-15T11:23:11.035Z,25.46
2018-05-15T11:24:17.836Z,25.36
2018-05-15T11:25:25.674Z,25.33
2018-05-15T11:26:32.924Z,25.25
2018-05-15T11:27:40.137Z,25.25
2018-05-15T11:28:47.285Z,24.87
2018-05-15T11:29:53.927Z,24.99
2018-05-15T11:31:01.081Z,25.06
2018-05-15T11:32:08.160Z,25.06
2018-05-15T11:33:15.741Z,25.04
2018-05-15T11:34:22.338Z,24.81
2018-05-15T11:35:29.525Z,24.63
2018-05-15T11:36:37.103Z,24.49
2018-05-15T11:37:44.209Z,24.41
2018-05-15T11:38:51.318Z,24.45
2018-05-15T11:39:58.396Z,24.43
2018-05-15T11:41:04.999Z,24.18
2018-05-15T11:42:12.493Z,24.19
2018-05-15T11:43:19.025Z,23.85
2018-05-15T11:44:26.481Z,23.91
2018-05-15T11:45:33.034Z,23.94
2018-05-15T11:46:40.561Z,23.93
2018-05-15T11:47:47.837Z,23.70
2018-05-15T11:48:54.488Z,24.02
2018-05-15T11:50:01.609Z,24.40
2018-05-15T11:51:09.582Z,24.75
2018-05-15T11:52:16.782Z,24.96
2018-05-15T11:53:23.166Z,25.26
2018-05-15T11:54:30.461Z,25.35
2018-05-15T11:55:42.712Z,25.60
2018-05-15T11:56:44.985Z,25.82
2018-05-15T11:57:52.585Z,26.05
2018-05-15T11:59:00.017Z,26.18
2018-05-15T12:00:07.495Z,25.80
2018-05-15T12:01:14.853Z,25.49
2018-05-15T12:02:22.216Z,25.49
2018-05-15T12:03:29.472Z,25.27
2018-05-15T12:04:36.761Z,25.21
2018-05-15T12:05:43.570Z,25.11
2018-05-15T12:06:51.289Z,24.96
2018-05-15T12:07:58.585Z,24.60
2018-05-15T12:09:05.820Z,24.58
2018-05-15T12:10:12.999Z,24.83
2018-05-15T12:11:20.299Z,25.12
2018-05-15T12:12:27.564Z,25.47
2018-05-15T12:13:34.872Z,25.76
2018-05-15T12:14:42.171Z,25.76
2018-05-15T12:15:49.489Z,25.69
2018-05-15T12:16:56.765Z,25.78
2018-05-15T12:18:03.518Z,25.81
2018-05-15T12:19:11.273Z,25.57
2018-05-15T12:20:18.552Z,25.58
2018-05-15T12:21:25.852Z,25.75
2018-05-15T12:22:33.105Z,25.47
2018-05-15T12:23:40.376Z,25.26
2018-05-15T12:24:47.619Z,25.10
2018-05-15T12:25:54.888Z,25.19
2018-05-15T12:27:01.834Z,25.25
2018-05-15T12:28:09.030Z,25.66
2018-05-15T12:29:16.697Z,25.89
2018-05-15T12:30:23.511Z,26.20
2018-05-15T12:31:31.422Z,26.40
2018-05-15T12:32:38.669Z,26.34
2018-05-15T12:33:46.036Z,26.47
2018-05-15T12:34:53.375Z,26.52
2018-05-15T12:36:00.773Z,26.47
2018-05-15T12:37:08.117Z,26.42
2018-05-15T12:38:15.528Z,26.55
2018-05-15T12:39:23.040Z,26.45
2018-05-15T12:40:30.617Z,26.28
2018-05-15T12:41:37.779Z,26.09
2018-05-15T12:42:45.109Z,25.70
2018-05-15T12:43:52.532Z,25.69
2018-05-15T12:44:59.941Z,25.67
2018-05-15T12:46:07.607Z,25.84
2018-05-15T12:47:14.854Z,25.87
2018-05-15T12:48:21.866Z,26.39
2018-05-15T12:49:29.818Z,26.72
2018-05-15T12:50:37.358Z,26.97
2018-05-15T12:51:44.941Z,27.07
2018-05-15T12:52:52.455Z,27.03
2018-05-15T12:54:00.019Z,26.74
2018-05-15T12:55:07.488Z,26.64
2018-05-15T12:56:14.825Z,26.43
2018-05-15T12:57:22.210Z,26.35
2018-05-15T12:58:29.429Z,26.38
2018-05-15T12:59:36.902Z,26.54
2018-05-15T13:00:44.345Z,25.99
2018-05-15T13:01:51.684Z,25.48
2018-05-15T13:02:58.881Z,25.32
2018-05-15T13:04:06.109Z,25.34
2018-05-15T13:05:13.329Z,25.39
2018-05-15T13:06:20.574Z,25.49
2018-05-15T13:07:27.920Z,25.45
2018-05-15T13:08:35.104Z,25.37
2018-05-15T13:09:42.399Z,25.62
2018-05-15T13:10:49.718Z,25.62
2018-05-15T13:11:57.056Z,25.90
2018-05-15T13:13:04.469Z,25.92
2018-05-15T13:14:11.835Z,25.80
2018-05-15T13:15:19.226Z,25.34
2018-05-15T13:16:27.034Z,25.15
2018-05-15T13:17:34.045Z,25.25
2018-05-15T13:18:41.181Z,25.06
2018-05-15T13:19:48.885Z,25.15
2018-05-15T13:20:56.403Z,25.21
2018-05-15T13:22:03.808Z,25.36
2018-05-15T13:23:11.271Z,25.37
2018-05-15T13:24:18.769Z,25.56
2018-05-15T13:25:26.157Z,25.62
2018-05-15T13:26:33.621Z,25.62
2018-05-15T13:27:41.088Z,25.52
2018-05-15T13:28:48.529Z,25.40
2018-05-15T13:29:56.125Z,25.49
2018-05-15T13:31:03.523Z,25.50
2018-05-15T13:32:11.024Z,25.22
2018-05-15T13:33:18.561Z,25.30
2018-05-15T13:34:26.054Z,25.05
2018-05-15T13:35:33.591Z,24.99
2018-05-15T13:36:41.162Z,25.17
2018-05-15T13:37:48.700Z,25.46
2018-05-15T13:38:55.747Z,25.77
2018-05-15T13:40:03.807Z,25.94
2018-05-15T13:41:10.932Z,26.19
2018-05-15T13:42:18.978Z,26.13
2018-05-15T13:43:26.590Z,26.18
2018-05-15T13:44:34.158Z,25.93
2018-05-15T13:45:41.255Z,25.34
2018-05-15T13:46:49.350Z,24.99
2018-05-15T13:47:56.872Z,24.71
2018-05-15T13:49:03.855Z,24.31
2018-05-15T13:50:11.778Z,24.25
2018-05-15T13:51:19.242Z,24.15
2018-05-15T13:52:26.684Z,24.04
2018-05-15T13:53:34.169Z,24.09
2018-05-15T13:54:41.621Z,24.09
2018-05-15T13:55:49.158Z,24.19
2018-05-15T13:56:56.564Z,24.18
2018-05-15T13:58:04.063Z,24.23
2018-05-15T13:59:12.244Z,24.29
2018-05-15T14:00:19.115Z,24.47
2018-05-15T14:01:26.655Z,24.46
2018-05-15T14:02:34.217Z,24.27
2018-05-15T14:03:41.804Z,24.25
2018-05-15T14:05:57.417Z,24.16
2018-05-15T14:07:04.547Z,23.95
2018-05-15T14:08:12.100Z,23.87
2018-05-15T14:09:19.273Z,23.95
2018-05-15T14:10:27.207Z,24.04
2018-05-15T14:11:34.767Z,23.86
2018-05-15T14:12:42.380Z,24.03
2018-05-15T14:13:49.881Z,24.02
2018-05-15T14:14:57.417Z,24.15
2018-05-15T14:16:04.984Z,24.32
2018-05-15T14:17:12.540Z,24.42
2018-05-15T14:18:19.629Z,24.26
2018-05-15T14:19:27.730Z,24.22